createdAt,value
2023-01-07T00:01:42.346Z,95.85
2023-01-07T00:04:13.541Z,95.13
2023-01-07T00:06:43.331Z,95.51
2023-01-07T00:09:16.688Z,95.63
2023-01-07T00:11:45.564Z,95.84
2023-01-07T00:14:16.185Z,96.11
2023-01-07T00:16:44.751Z,96.21
2023-01-07T00:19:15.709Z,96.57
2023-01-07T00:21:44.254Z,96.51
2023-01-07T00:24:13.066Z,96.30
2023-01-07T00:26:41.898Z,95.23
2023-01-07T00:29:10.630Z,94.65
2023-01-07T00:31:41.542Z,95.15
2023-01-07T00:34:10.354Z,94.24
2023-01-07T00:36:41.441Z,94.06
2023-01-07T00:39:13.111Z,93.93
2023-01-07T00:41:41.260Z,94.90
2023-01-07T00:44:10.317Z,94.54
2023-01-07T00:46:39.791Z,93.77
2023-01-07T00:49:07.908Z,96.77
2023-01-07T00:51:36.015Z,97.26
2023-01-07T00:54:04.290Z,97.90
2023-01-07T00:56:33.643Z,97.36
2023-01-07T00:59:01.828Z,96.13
2023-01-07T01:01:30.290Z,96.03
2023-01-07T01:03:59.890Z,96.91
2023-01-07T01:06:27.983Z,95.91
2023-01-07T01:08:56.049Z,96.58
2023-01-07T01:11:24.270Z,97.00
2023-01-07T01:13:53.118Z,97.19
2023-01-07T01:16:21.318Z,96.38
2023-01-07T01:18:50.182Z,96.76
2023-01-07T01:21:19.633Z,98.28
2023-01-07T01:23:47.955Z,98.46
2023-01-07T01:26:18.125Z,96.51
2023-01-07T01:28:46.633Z,97.92
2023-01-07T01:31:19.920Z,97.76
2023-01-07T01:33:54.724Z,97.46
2023-01-07T01:36:24.810Z,96.04
2023-01-07T01:38:55.091Z,96.74
2023-01-07T01:41:23.402Z,95.62
2023-01-07T01:43:53.996Z,95.41
2023-01-07T01:46:32.224Z,95.74
2023-01-07T01:49:04.908Z,94.91
2023-01-07T01:51:40.370Z,96.26
2023-01-07T01:54:12.533Z,96.15
2023-01-07T01:56:48.518Z,94.83
2023-01-07T01:59:20.098Z,95.08
2023-01-07T02:01:48.797Z,94.96
2023-01-07T02:04:23.019Z,95.89
2023-01-07T02:06:59.216Z,95.11
2023-01-07T02:09:29.397Z,94.14
2023-01-07T02:12:09.190Z,93.63
2023-01-07T02:15:03.837Z,93.45
2023-01-07T02:17:45.649Z,94.36
2023-01-07T02:20:44.147Z,93.77
2023-01-07T02:23:43.564Z,93.14
2023-01-07T02:26:40.894Z,91.26
2023-01-07T02:29:37.118Z,92.88
2023-01-07T02:32:26.741Z,90.79
2023-01-07T02:35:06.391Z,90.10
2023-01-07T02:37:46.899Z,94.60
2023-01-07T02:40:22.253Z,97.15
2023-01-07T02:43:03.051Z,98.62
2023-01-07T02:45:33.959Z,98.77
2023-01-07T02:48:06.835Z,98.68
2023-01-07T02:50:35.486Z,98.03
2023-01-07T02:53:03.561Z,97.05
2023-01-07T02:55:40.870Z,96.42
2023-01-07T02:58:33.925Z,96.39
2023-01-07T03:01:22.823Z,99.15
2023-01-07T03:04:11.510Z,98.50
2023-01-07T03:06:54.505Z,98.53
2023-01-07T03:09:30.803Z,99.71
2023-01-07T03:12:08.755Z,99.18
2023-01-07T03:14:43.520Z,99.39
2023-01-07T03:17:18.419Z,98.62
2023-01-07T03:19:52.379Z,98.48
2023-01-07T03:22:23.691Z,99.03
2023-01-07T03:24:54.213Z,99.30
2023-01-07T03:27:24.906Z,99.44
2023-01-07T03:29:56.150Z,100.00
2023-01-07T03:32:27.382Z,100.00
2023-01-07T03:34:57.492Z,100.00
2023-01-07T03:37:27.767Z,100.00
2023-01-07T03:39:58.585Z,100.00
2023-01-07T03:42:42.256Z,100.00
2023-01-07T03:45:17.655Z,100.00
2023-01-07T03:47:48.375Z,100.00
2023-01-07T03:50:19.769Z,100.00
2023-01-07T03:52:49.591Z,100.00
2023-01-07T03:55:19.557Z,100.00
2023-01-07T03:57:49.573Z,100.00
2023-01-07T04:00:18.798Z,100.00
2023-01-07T04:02:54.888Z,100.00
2023-01-07T04:05:29.090Z,100.00
2023-01-07T04:07:57.173Z,100.00
2023-01-07T04:10:27.033Z,100.00
2023-01-07T04:12:55.242Z,100.00
2023-01-07T04:15:23.812Z,100.00
2023-01-07T04:17:52.151Z,100.00
2023-01-07T04:20:20.399Z,100.00
2023-01-07T04:22:49.874Z,100.00
2023-01-07T04:25:18.421Z,100.00
2023-01-07T04:27:46.791Z,100.00
2023-01-07T04:30:15.059Z,100.00
2023-01-07T04:32:43.208Z,100.00
2023-01-07T04:35:12.033Z,100.00
2023-01-07T04:37:40.623Z,100.00
2023-01-07T04:40:11.545Z,100.00
2023-01-07T04:42:40.170Z,100.00
2023-01-07T04:45:10.563Z,100.00
2023-01-07T04:47:38.887Z,100.00
2023-01-07T04:50:09.039Z,100.00
2023-01-07T04:52:37.964Z,100.00
2023-01-07T04:55:07.989Z,100.00
2023-01-07T04:57:37.606Z,100.00
2023-01-07T05:00:07.476Z,100.00
2023-01-07T05:02:35.970Z,100.00
2023-01-07T05:05:04.360Z,100.00
2023-01-07T05:07:33.067Z,100.00
2023-01-07T05:10:02.058Z,100.00
2023-01-07T05:12:34.879Z,100.00
2023-01-07T05:15:06.069Z,100.00
2023-01-07T05:17:35.962Z,100.00
2023-01-07T05:20:06.656Z,100.00
2023-01-07T05:22:35.695Z,100.00
2023-01-07T05:25:04.512Z,100.00
2023-01-07T05:27:33.151Z,100.00
2023-01-07T05:30:02.138Z,100.00
2023-01-07T05:32:31.634Z,100.00
2023-01-07T05:35:00.007Z,100.00
2023-01-07T05:37:28.545Z,100.00
2023-01-07T05:39:57.716Z,100.00
2023-01-07T05:42:25.955Z,100.00
2023-01-07T05:44:54.112Z,100.00
2023-01-07T05:47:22.243Z,99.67
2023-01-07T05:49:51.730Z,99.28
2023-01-07T05:52:19.813Z,98.04
2023-01-07T05:54:47.879Z,97.11
2023-01-07T05:57:15.937Z,99.38
2023-01-07T05:59:44.059Z,100.00
2023-01-07T06:02:12.092Z,100.00
2023-01-07T06:04:40.251Z,100.00
2023-01-07T06:07:09.774Z,100.00
2023-01-07T06:09:37.908Z,100.00
2023-01-07T06:12:06.360Z,100.00
2023-01-07T06:14:34.464Z,100.00
2023-01-07T06:17:02.579Z,100.00
2023-01-07T06:19:30.746Z,100.00
2023-01-07T06:21:59.578Z,100.00
2023-01-07T06:24:29.573Z,100.00
2023-01-07T06:26:57.730Z,100.00
2023-01-07T06:29:25.936Z,100.00
2023-01-07T06:31:54.039Z,100.00
2023-01-07T06:34:22.258Z,100.00
2023-01-07T06:36:50.345Z,100.00
2023-01-07T06:39:18.491Z,100.00
2023-01-07T06:41:48.004Z,100.00
2023-01-07T06:44:16.268Z,100.00
2023-01-07T06:46:44.377Z,98.18
2023-01-07T06:49:12.735Z,96.48
2023-01-07T06:51:40.841Z,95.21
2023-01-07T06:54:09.021Z,94.27
2023-01-07T06:56:37.059Z,94.08
2023-01-07T06:59:06.587Z,95.72
2023-01-07T07:01:34.761Z,94.45
2023-01-07T07:04:03.037Z,94.22
2023-01-07T07:06:31.088Z,93.83
2023-01-07T07:08:59.183Z,94.04
2023-01-07T07:11:27.283Z,94.50
2023-01-07T07:13:55.439Z,95.49
2023-01-07T07:16:25.099Z,94.23
2023-01-07T07:18:54.193Z,92.34
2023-01-07T07:21:22.727Z,91.60
2023-01-07T07:23:50.806Z,91.48
2023-01-07T07:26:19.052Z,90.88
2023-01-07T07:28:47.099Z,91.05
2023-01-07T07:31:15.230Z,90.06
2023-01-07T07:33:44.739Z,88.40
2023-01-07T07:36:12.789Z,88.59
2023-01-07T07:38:40.950Z,88.47
2023-01-07T07:41:09.034Z,88.36
2023-01-07T07:43:37.387Z,88.42
2023-01-07T07:46:05.950Z,88.22
2023-01-07T07:48:34.262Z,89.55
2023-01-07T07:51:07.021Z,89.21
2023-01-07T07:53:35.194Z,89.33
2023-01-07T07:56:03.374Z,88.14
2023-01-07T07:58:31.472Z,87.57
2023-01-07T08:00:59.701Z,89.69
2023-01-07T08:03:27.890Z,91.00
2023-01-07T08:05:55.974Z,92.16
2023-01-07T08:08:25.558Z,90.53
2023-01-07T08:10:56.265Z,91.88
2023-01-07T08:13:24.740Z,91.47
2023-01-07T08:15:53.245Z,91.42
2023-01-07T08:18:21.336Z,91.12
2023-01-07T08:20:49.402Z,89.79
2023-01-07T08:23:18.036Z,88.92
2023-01-07T08:25:47.528Z,87.90
2023-01-07T08:28:15.709Z,88.48
2023-01-07T08:30:44.483Z,86.08
2023-01-07T08:33:12.873Z,85.83
2023-01-07T08:35:40.926Z,85.43
2023-01-07T08:38:10.493Z,87.96
2023-01-07T08:40:39.549Z,89.93
2023-01-07T08:43:10.001Z,89.67
2023-01-07T08:45:38.083Z,89.99
2023-01-07T08:48:06.694Z,94.18
2023-01-07T08:50:35.317Z,96.21
2023-01-07T08:53:03.511Z,94.59
2023-01-07T08:55:31.595Z,94.67
2023-01-07T08:57:59.779Z,93.63
2023-01-07T09:00:29.331Z,92.20
2023-01-07T09:02:57.439Z,93.61
2023-01-07T09:05:25.722Z,94.06
2023-01-07T09:07:54.578Z,93.42
2023-01-07T09:10:23.159Z,92.78
2023-01-07T09:12:51.553Z,90.99
2023-01-07T09:15:19.678Z,89.34
2023-01-07T09:17:49.207Z,88.59
2023-01-07T09:20:17.397Z,88.79
2023-01-07T09:22:45.735Z,87.90
2023-01-07T09:25:14.053Z,87.23
2023-01-07T09:27:43.374Z,87.11
2023-01-07T09:30:12.347Z,86.30
2023-01-07T09:32:40.484Z,85.57
2023-01-07T09:35:11.020Z,85.01
2023-01-07T09:37:39.230Z,87.55
2023-01-07T09:40:09.268Z,90.95
2023-01-07T09:42:46.704Z,92.90
2023-01-07T09:45:18.283Z,93.28
2023-01-07T09:47:49.276Z,92.44
2023-01-07T09:50:29.652Z,92.27
2023-01-07T09:53:01.789Z,92.19
2023-01-07T09:55:34.541Z,92.83
2023-01-07T09:58:02.976Z,92.74
2023-01-07T10:00:34.553Z,93.06
2023-01-07T10:03:14.467Z,93.64
2023-01-07T10:05:57.111Z,93.13
2023-01-07T10:08:35.332Z,93.26
2023-01-07T10:11:15.225Z,92.92
2023-01-07T10:13:55.955Z,92.43
2023-01-07T10:16:33.933Z,91.76
2023-01-07T10:19:09.455Z,91.87
2023-01-07T10:21:45.430Z,91.67
2023-01-07T10:24:22.007Z,91.27
2023-01-07T10:26:54.473Z,90.28
2023-01-07T10:29:31.014Z,90.97
2023-01-07T10:32:06.185Z,90.43
2023-01-07T10:34:38.697Z,90.57
2023-01-07T10:37:15.647Z,90.34
2023-01-07T10:39:52.586Z,90.19
2023-01-07T10:42:30.121Z,89.34
2023-01-07T10:45:22.720Z,88.70
2023-01-07T10:48:05.035Z,87.91
2023-01-07T10:51:01.135Z,87.82
2023-01-07T10:53:45.063Z,86.96
2023-01-07T10:56:24.506Z,87.53
2023-01-07T10:58:52.639Z,86.58
2023-01-07T11:01:26.059Z,86.20
2023-01-07T11:03:56.031Z,85.97
2023-01-07T11:06:33.091Z,85.32
2023-01-07T11:09:05.920Z,84.94
2023-01-07T11:11:34.963Z,85.35
2023-01-07T11:14:07.847Z,84.11
2023-01-07T11:16:49.249Z,83.47
2023-01-07T11:19:22.580Z,83.31
2023-01-07T11:21:52.270Z,83.45
2023-01-07T11:24:35.073Z,83.81
2023-01-07T11:27:14.137Z,83.20
2023-01-07T11:29:45.497Z,82.40
2023-01-07T11:32:22.613Z,81.11
2023-01-07T11:34:56.502Z,80.96
2023-01-07T11:37:38.454Z,81.78
2023-01-07T11:40:24.029Z,81.40
2023-01-07T11:42:55.129Z,82.25
2023-01-07T11:45:25.118Z,81.60
2023-01-07T11:48:08.705Z,81.12
2023-01-07T11:50:40.147Z,79.29
2023-01-07T11:53:32.558Z,79.33
2023-01-07T11:56:04.555Z,79.09
2023-01-07T11:58:34.504Z,76.42
2023-01-07T12:01:14.508Z,78.26
2023-01-07T12:03:45.382Z,78.33
2023-01-07T12:06:21.122Z,77.77
2023-01-07T12:08:56.201Z,77.56
2023-01-07T12:11:32.286Z,77.11
2023-01-07T12:14:08.802Z,77.02
2023-01-07T12:16:37.399Z,77.90
2023-01-07T12:19:22.730Z,77.36
2023-01-07T12:22:13.155Z,75.23
2023-01-07T12:25:03.126Z,74.66
2023-01-07T12:27:46.650Z,71.53
2023-01-07T12:30:47.453Z,69.06
2023-01-07T12:33:26.829Z,70.93
2023-01-07T12:35:59.211Z,70.74
2023-01-07T12:38:42.286Z,68.93
2023-01-07T12:41:19.717Z,69.90
2023-01-07T12:43:59.962Z,70.50
2023-01-07T12:46:32.217Z,71.07
2023-01-07T12:49:06.738Z,71.66
2023-01-07T12:51:41.132Z,70.49
2023-01-07T12:54:16.750Z,71.89
2023-01-07T12:56:49.226Z,71.66
2023-01-07T12:59:46.418Z,70.03
2023-01-07T13:02:21.040Z,70.13
2023-01-07T13:04:59.640Z,69.04
2023-01-07T13:07:36.854Z,68.17
2023-01-07T13:10:12.224Z,68.91
2023-01-07T13:12:46.289Z,67.92
2023-01-07T13:15:23.735Z,69.00
2023-01-07T13:17:54.198Z,68.18
2023-01-07T13:20:38.572Z,66.49
2023-01-07T13:23:08.836Z,64.51
2023-01-07T13:25:51.785Z,64.66
2023-01-07T13:28:40.879Z,65.35
2023-01-07T13:31:22.761Z,65.82
2023-01-07T13:34:00.665Z,66.56
2023-01-07T13:36:36.426Z,67.98
2023-01-07T13:39:45.112Z,69.19
2023-01-07T13:42:29.597Z,69.52
2023-01-07T13:45:02.932Z,69.98
2023-01-07T13:47:43.736Z,70.20
2023-01-07T13:50:21.177Z,70.63
2023-01-07T13:52:59.095Z,71.07
2023-01-07T13:55:46.103Z,71.01
2023-01-07T13:58:45.857Z,70.20
2023-01-07T14:01:15.464Z,71.50
2023-01-07T14:03:50.212Z,71.68
2023-01-07T14:06:43.571Z,70.76
2023-01-07T14:09:43.670Z,71.11
2023-01-07T14:12:40.010Z,71.38
2023-01-07T14:15:38.463Z,72.08
2023-01-07T14:18:37.240Z,71.75
2023-01-07T14:21:18.913Z,72.36
2023-01-07T14:23:58.456Z,72.01
2023-01-07T14:26:34.365Z,72.44
2023-01-07T14:29:34.946Z,72.24
2023-01-07T14:32:28.078Z,72.31
2023-01-07T14:34:59.644Z,73.20
2023-01-07T14:37:35.296Z,72.76
2023-01-07T14:40:56.519Z,73.14
2023-01-07T14:43:47.737Z,74.21
2023-01-07T14:46:52.068Z,74.06
2023-01-07T14:49:51.165Z,74.46
2023-01-07T14:52:45.061Z,74.44
2023-01-07T14:55:38.928Z,75.03
2023-01-07T14:58:38.217Z,75.12
2023-01-07T15:01:48.834Z,75.56
2023-01-07T15:05:03.693Z,75.69
2023-01-07T15:07:35.351Z,76.51
2023-01-07T15:10:36.174Z,76.30
2023-01-07T15:13:25.941Z,76.51
2023-01-07T15:16:06.401Z,76.53
2023-01-07T15:18:47.136Z,76.67
2023-01-07T15:21:24.263Z,76.92
2023-01-07T15:24:01.691Z,76.88
2023-01-07T15:26:41.438Z,77.13
2023-01-07T15:29:17.209Z,77.57
2023-01-07T15:31:55.938Z,77.93
2023-01-07T15:34:30.817Z,77.78
2023-01-07T15:36:59.338Z,78.73
2023-01-07T15:39:30.792Z,79.60
2023-01-07T15:42:01.511Z,79.94
2023-01-07T15:44:40.474Z,79.60
2023-01-07T15:47:37.600Z,79.94
2023-01-07T15:50:28.068Z,80.71
2023-01-07T15:52:58.132Z,81.21
2023-01-07T15:55:28.780Z,81.48
2023-01-07T15:58:04.219Z,82.46
2023-01-07T16:00:32.479Z,82.67
2023-01-07T16:03:01.159Z,82.97
2023-01-07T16:05:29.571Z,83.35
2023-01-07T16:07:59.440Z,83.28
2023-01-07T16:10:32.033Z,83.49
2023-01-07T16:13:03.042Z,84.04
2023-01-07T16:15:32.950Z,84.50
2023-01-07T16:18:02.788Z,85.03
2023-01-07T16:20:34.641Z,85.58
2023-01-07T16:23:19.322Z,86.47
2023-01-07T16:25:50.489Z,86.53
2023-01-07T16:28:22.406Z,86.27
2023-01-07T16:30:52.711Z,86.77
2023-01-07T16:33:23.693Z,87.42
2023-01-07T16:35:54.333Z,87.60
2023-01-07T16:38:23.256Z,87.58
2023-01-07T16:40:52.502Z,87.99
2023-01-07T16:43:45.319Z,88.25
2023-01-07T16:46:27.766Z,88.15
2023-01-07T16:49:21.724Z,88.32
2023-01-07T16:51:51.207Z,88.20
2023-01-07T16:54:33.579Z,88.50
2023-01-07T16:57:04.176Z,88.54
2023-01-07T16:59:35.506Z,88.25
2023-01-07T17:02:14.023Z,88.08
2023-01-07T17:04:42.445Z,88.26
2023-01-07T17:07:20.125Z,88.52
2023-01-07T17:09:48.701Z,88.29
2023-01-07T17:12:30.605Z,88.19
2023-01-07T17:15:00.622Z,88.31
2023-01-07T17:17:32.074Z,88.06
2023-01-07T17:20:19.912Z,88.09
2023-01-07T17:22:49.614Z,88.44
2023-01-07T17:25:24.590Z,88.55
2023-01-07T17:27:56.362Z,88.84
2023-01-07T17:30:34.395Z,89.84
2023-01-07T17:33:02.688Z,89.87
2023-01-07T17:35:30.916Z,90.43
2023-01-07T17:37:58.989Z,90.22
2023-01-07T17:40:27.090Z,90.96
2023-01-07T17:43:14.414Z,90.93
2023-01-07T17:45:43.953Z,91.05
2023-01-07T17:48:14.660Z,91.39
2023-01-07T17:50:43.848Z,91.80
2023-01-07T17:53:22.838Z,92.13
2023-01-07T17:55:51.103Z,92.19
2023-01-07T17:58:28.913Z,92.60
2023-01-07T18:01:00.180Z,92.48
2023-01-07T18:03:28.900Z,92.25
2023-01-07T18:05:57.079Z,92.28
2023-01-07T18:08:25.358Z,92.31
2023-01-07T18:11:11.313Z,92.40
2023-01-07T18:13:39.669Z,92.04
2023-01-07T18:16:13.239Z,92.05
2023-01-07T18:18:41.360Z,91.68
2023-01-07T18:21:12.493Z,91.86
2023-01-07T18:23:40.646Z,91.79
2023-01-07T18:26:09.020Z,91.47
2023-01-07T18:28:37.134Z,91.88
2023-01-07T18:31:05.484Z,91.58
2023-01-07T18:33:35.447Z,91.58
2023-01-07T18:36:03.800Z,91.50
2023-01-07T18:38:31.970Z,91.31
2023-01-07T18:41:00.409Z,91.29
2023-01-07T18:43:28.543Z,91.15
2023-01-07T18:45:56.676Z,91.49
2023-01-07T18:48:25.407Z,91.15
2023-01-07T18:50:54.892Z,91.14
2023-01-07T18:53:26.713Z,91.41
2023-01-07T18:56:01.379Z,91.71
2023-01-07T18:58:29.781Z,91.54
2023-01-07T19:01:03.389Z,91.49
2023-01-07T19:03:31.619Z,91.60
2023-01-07T19:06:01.141Z,91.58
2023-01-07T19:08:29.426Z,92.13
2023-01-07T19:10:57.684Z,92.61
2023-01-07T19:13:25.787Z,92.51
2023-01-07T19:15:53.886Z,92.34
2023-01-07T19:18:21.969Z,92.76
2023-01-07T19:20:50.175Z,92.54
2023-01-07T19:23:19.776Z,92.23
2023-01-07T19:25:57.809Z,92.55
2023-01-07T19:28:26.090Z,92.39
2023-01-07T19:30:54.599Z,92.57
2023-01-07T19:33:22.980Z,92.39
2023-01-07T19:35:51.218Z,92.61
2023-01-07T19:38:20.656Z,92.85
2023-01-07T19:40:48.780Z,92.27
2023-01-07T19:43:16.869Z,92.12
2023-01-07T19:45:54.544Z,91.95
2023-01-07T19:48:22.941Z,92.33
2023-01-07T19:50:55.689Z,92.12
2023-01-07T19:53:25.147Z,92.01
2023-01-07T19:55:54.492Z,92.09
2023-01-07T19:58:22.740Z,92.27
2023-01-07T20:00:50.954Z,92.27
2023-01-07T20:03:19.026Z,92.63
2023-01-07T20:05:47.088Z,92.81
2023-01-07T20:08:15.200Z,93.05
2023-01-07T20:10:44.657Z,93.00
2023-01-07T20:13:12.780Z,92.89
2023-01-07T20:15:40.802Z,92.66
2023-01-07T20:18:08.846Z,92.78
2023-01-07T20:20:36.904Z,92.98
2023-01-07T20:23:05.069Z,92.73
2023-01-07T20:25:33.254Z,92.72
2023-01-07T20:28:02.754Z,92.83
2023-01-07T20:30:30.809Z,93.21
2023-01-07T20:32:58.923Z,93.39
2023-01-07T20:35:26.980Z,93.43
2023-01-07T20:37:55.139Z,93.39
2023-01-07T20:40:23.304Z,93.19
2023-01-07T20:42:51.361Z,93.34
2023-01-07T20:45:20.862Z,93.30
2023-01-07T20:47:48.946Z,93.18
2023-01-07T20:50:18.430Z,93.04
2023-01-07T20:52:46.514Z,92.83
2023-01-07T20:55:14.652Z,93.52
2023-01-07T20:57:42.809Z,93.26
2023-01-07T21:00:12.546Z,93.07
2023-01-07T21:02:42.098Z,93.24
2023-01-07T21:05:10.693Z,92.89
2023-01-07T21:07:38.733Z,92.85
2023-01-07T21:10:07.731Z,92.89
2023-01-07T21:12:35.797Z,92.76
2023-01-07T21:15:04.297Z,92.72
2023-01-07T21:17:32.463Z,92.71
2023-01-07T21:20:01.903Z,92.57
2023-01-07T21:22:30.125Z,92.73
2023-01-07T21:24:58.216Z,92.67
2023-01-07T21:27:26.429Z,92.70
2023-01-07T21:29:54.481Z,92.75
2023-01-07T21:32:22.574Z,92.90
2023-01-07T21:34:50.683Z,92.99
2023-01-07T21:37:20.295Z,92.79
2023-01-07T21:39:51.420Z,92.78
2023-01-07T21:42:19.728Z,92.65
2023-01-07T21:44:47.784Z,92.91
2023-01-07T21:47:15.903Z,93.20
2023-01-07T21:49:44.299Z,93.31
2023-01-07T21:52:12.542Z,93.23
2023-01-07T21:54:42.015Z,93.04
2023-01-07T21:57:10.117Z,93.25
2023-01-07T21:59:38.173Z,93.23
2023-01-07T22:02:06.521Z,93.23
2023-01-07T22:04:35.009Z,92.88
2023-01-07T22:07:03.098Z,93.28
2023-01-07T22:09:31.157Z,93.08
2023-01-07T22:12:00.694Z,92.93
2023-01-07T22:14:28.922Z,93.03
2023-01-07T22:16:57.097Z,93.20
2023-01-07T22:19:25.995Z,93.00
2023-01-07T22:21:54.159Z,93.18
2023-01-07T22:24:22.225Z,93.02
2023-01-07T22:26:50.333Z,93.27
2023-01-07T22:29:19.947Z,93.47
2023-01-07T22:31:51.082Z,93.34
2023-01-07T22:34:20.110Z,93.44
2023-01-07T22:36:54.415Z,93.48
2023-01-07T22:39:25.816Z,93.81
2023-01-07T22:41:59.250Z,93.79
2023-01-07T22:44:34.967Z,93.36
2023-01-07T22:47:04.350Z,93.38
2023-01-07T22:49:33.422Z,93.23
2023-01-07T22:52:01.743Z,93.41
2023-01-07T22:54:30.262Z,93.16
2023-01-07T22:57:01.240Z,92.92
2023-01-07T22:59:30.834Z,93.14
2023-01-07T23:01:58.893Z,93.09
2023-01-07T23:04:27.074Z,93.56
2023-01-07T23:06:55.265Z,93.46
2023-01-07T23:09:23.407Z,93.22
2023-01-07T23:11:51.986Z,93.23
2023-01-07T23:14:22.192Z,93.17
2023-01-07T23:16:52.976Z,92.80
2023-01-07T23:19:21.703Z,92.60
2023-01-07T23:21:51.432Z,92.58
2023-01-07T23:24:19.881Z,92.22
2023-01-07T23:26:49.271Z,91.88
2023-01-07T23:29:17.555Z,92.24
2023-01-07T23:31:45.801Z,92.47
2023-01-07T23:34:16.492Z,92.39
2023-01-07T23:36:44.643Z,92.10
2023-01-07T23:39:13.041Z,92.27
2023-01-07T23:41:41.252Z,91.84
2023-01-07T23:44:09.342Z,91.82
2023-01-07T23:46:37.626Z,91.59
2023-01-07T23:49:05.945Z,91.62
2023-01-07T23:51:35.451Z,91.64
2023-01-07T23:54:03.497Z,91.37
2023-01-07T23:56:31.723Z,91.11
2023-01-07T23:59:02.775Z,91.13
